Appleton Thorn, United Kingdom
Current Conditions -  °F | °C
As of 12:20 AM on Tuesday 21 Oct 2014 (Local Time) from EGCC Reporting Station
Light Rain Light Rain  
Wind Chill: 12°   Ceiling: Unl
Heat Index: 12°   Visibility: 6mi
Dew Point: 10°   Wind: 15mph
Humidity: 88%   Direction: 190°S
Pressure: 29.65"   Gusts: NA
Location:  53.35°N, 2.54°W
Report Text: EGCC 202320Z 19013KT 9999 -RA FEW039 12/10 Q1004 NOSIG
Loading
Personal Weather Stations






























Interactive Weather Map
Tropical Storm Tracking
New forecast layout! Learn more

10-Day Weather Forecast

Advertisements
Track Severe Weather on mobile